Terminal Aerodrome Forecast
Issued by NWS Charleston, WV

Current Version | Previous Version | Graphics & Text | Print | Product List | Glossary On
Versions: 1 2 3 4 5 6 7 8 9 10 11 12 13 14 15 16 17 18 19 20 21 22 23 24 25
000
FTUS41 KRLX 301100
TAFPKB
TAF
KPKB 301125Z 3012/3112 17003KT P6SM OVC100
     FM301400 19006KT P6SM SCT060
     FM301900 21008KT P6SM SCT040
     FM310800 22005KT 4SM SHRA BR VCTS OVC040CB=

USA.gov is the U.S. government's official web portal to all federal, state and local government web resources and services.